Air Navigation Services of Czech Republic
Airport: LKTB Updated:  22.04.2021 17:15:25  UTC
 METAR LKTB 22.04. 17:00 ...
METAR LKTB 221700Z 30014KT CAVOK 10/M05 Q1018 NOSIG RMK REG QNH 1015=
 TAF LKTB 22.04. 17:00 ...
TAF LKTB 221700Z 2218/2400 31010KT CAVOK      TEMPO 2308/2318 32016KT      PROB30 TEMPO 2310/2317 33016G26KT=